Roseburg, OR

9:06 PM PDT on September 14, 2014 (GMT -0700)
Roseburg Regional | Change Station
CLOSE
Current Station
Airport
Location: Roseburg,
Elevation: 525 ft
Nearby Weather Stations
Active Advisory: Fire Weather Watch

Elev 525 ft 43.24 °N, 123.36 °W | Updated 13 minutes ago

Mostly Cloudy
Mostly Cloudy
80 °F
Feels Like 80 °F
N
4
Wind Variable Wind from NE

Today
High -- | Low -- °F
--% Chance of Precip.
Yesterday
High -- | Low -- °F
Precip. -- in
6:52 AM 7:25 PM
Waning Gibbous, 59% visible
Pressure 29.80 in
Visibility 10.0 miles
Clouds Scattered Clouds 12000 ft
Dew Point 40 °F
Humidity 24%
Rainfall 0.00 in
Snow Depth 0 in , 0 in , 0 in
UV 0 out of 12
Pollen 2.00 out of 12
Air Quality Not available.
Flu Activity Not available.
METAR KRBG 150353Z AUTO 05003KT 10SM SCT120 27/04 A2981 RMK AO2 SLP091 T02670044 $

More Conditions Fewer Conditions

Pressure 29.80 in
Visibility 10.0 miles
Clouds Scattered Clouds 12000 ft
Dew Point 40 °F
Humidity 24%
Rainfall 0.00 in
Snow Depth 0 in , 0 in , 0 in
UV 0 out of 12
Pollen 2.00 out of 12
Air Quality Not available.
Flu Activity Not available.
METAR KRBG 150353Z AUTO 05003KT 10SM SCT120 27/04 A2981 RMK AO2 SLP091 T02670044 $

More Conditions Fewer Conditions

10-Day Weather Forecast

Almanac

Astronomy

Sep. 14, 2014 Rise Set
Actual Time 6:52 AM PDT 7:25 PM PDT
Civil Twilight 6:23 AM PDT 7:53 PM PDT
Nautical Twilight 5:49 AM PDT 8:27 PM PDT
Astronomical Twilight 5:14 AM PDT 9:02 PM PDT
Moon 11:12 PM PDT (9/14) 1:12 PM PDT (9/14)
Length of Visible Light 13h 30m
Length of Day
12h 33m
Tomorrow will be 2m 54s shorter.
Waning Gibbous, 59% of the Moon is Illuminated
Sep 15
Waning Gibbous
Sep 15
Last Quarter
Sep 24
New
Oct 1
First Quarter
Oct 8
Full

Today's Extremes

State Highs State Lows

Community

WunderPhotos

Upload Photos

1,753,398 photos uploaded!

Nearby

Snow Depth

Station Depth Elevation
Strawberry 0 in 5760 ft
Wolf Creek 0 in 5700 ft
Bigelow Camp 0 in 5120 ft
Madison Butte 0 in 5250 ft
Arbuckle Mountain 0 in 5400 ft

Earthquake Activity

City Distance Mag. Time & Date
No recent earthquake activity has been reported nearby.
Minimum magnitude displayed is 2.5.

Coastal Water Temperatures

Place Temperature
No Stations Reporting

Nearby Weather Stations